sensor_id;sensor_type;location;lat;lon;timestamp;P1;durP1;ratioP1;P2;durP2;ratioP2
14203;SDS011;7185;51.854;6.622;2022-07-25T00:01:29;10.40;;;7.88;;
14203;SDS011;7185;51.854;6.622;2022-07-25T00:04:01;12.48;;;8.10;;
14203;SDS011;7185;51.854;6.622;2022-07-25T00:06:32;13.90;;;8.73;;
14203;SDS011;7185;51.854;6.622;2022-07-25T00:09:06;11.52;;;8.35;;
14203;SDS011;7185;51.854;6.622;2022-07-25T00:11:38;11.07;;;7.95;;
14203;SDS011;7185;51.854;6.622;2022-07-25T00:14:09;10.40;;;7.60;;
14203;SDS011;7185;51.854;6.622;2022-07-25T00:16:41;12.60;;;8.38;;
14203;SDS011;7185;51.854;6.622;2022-07-25T00:19:13;11.80;;;8.40;;
14203;SDS011;7185;51.854;6.622;2022-07-25T00:21:47;9.85;;;8.00;;
14203;SDS011;7185;51.854;6.622;2022-07-25T00:24:20;11.18;;;8.23;;
14203;SDS011;7185;51.854;6.622;2022-07-25T00:26:52;12.77;;;8.20;;
14203;SDS011;7185;51.854;6.622;2022-07-25T00:29:23;12.98;;;8.23;;
14203;SDS011;7185;51.854;6.622;2022-07-25T00:31:55;12.13;;;8.77;;
14203;SDS011;7185;51.854;6.622;2022-07-25T00:34:27;10.65;;;8.40;;
14203;SDS011;7185;51.854;6.622;2022-07-25T00:36:59;10.38;;;8.20;;
14203;SDS011;7185;51.854;6.622;2022-07-25T00:39:32;10.93;;;8.30;;
14203;SDS011;7185;51.854;6.622;2022-07-25T00:42:04;11.88;;;8.80;;
14203;SDS011;7185;51.854;6.622;2022-07-25T00:44:35;10.65;;;8.38;;
14203;SDS011;7185;51.854;6.622;2022-07-25T00:47:07;12.20;;;8.57;;
14203;SDS011;7185;51.854;6.622;2022-07-25T00:49:39;12.73;;;8.90;;
14203;SDS011;7185;51.854;6.622;2022-07-25T00:52:10;10.98;;;8.55;;
14203;SDS011;7185;51.854;6.622;2022-07-25T00:54:44;10.98;;;7.95;;
14203;SDS011;7185;51.854;6.622;2022-07-25T00:57:16;14.13;;;8.13;;
14203;SDS011;7185;51.854;6.622;2022-07-25T00:59:48;10.00;;;7.75;;
14203;SDS011;7185;51.854;6.622;2022-07-25T01:02:19;12.50;;;8.45;;
14203;SDS011;7185;51.854;6.622;2022-07-25T01:04:51;11.23;;;8.40;;
14203;SDS011;7185;51.854;6.622;2022-07-25T01:07:24;12.68;;;8.35;;
14203;SDS011;7185;51.854;6.622;2022-07-25T01:09:57;11.30;;;7.55;;
14203;SDS011;7185;51.854;6.622;2022-07-25T01:12:30;11.73;;;8.02;;
14203;SDS011;7185;51.854;6.622;2022-07-25T01:15:01;10.00;;;7.90;;
14203;SDS011;7185;51.854;6.622;2022-07-25T01:17:33;12.95;;;8.43;;
14203;SDS011;7185;51.854;6.622;2022-07-25T01:20:12;12.38;;;8.60;;
14203;SDS011;7185;51.854;6.622;2022-07-25T01:22:44;10.93;;;8.32;;
14203;SDS011;7185;51.854;6.622;2022-07-25T01:25:16;11.07;;;8.57;;
14203;SDS011;7185;51.854;6.622;2022-07-25T01:27:48;11.20;;;8.15;;
14203;SDS011;7185;51.854;6.622;2022-07-25T01:30:22;13.65;;;8.73;;
14203;SDS011;7185;51.854;6.622;2022-07-25T01:32:54;12.18;;;8.50;;
14203;SDS011;7185;51.854;6.622;2022-07-25T01:35:28;11.98;;;8.98;;
14203;SDS011;7185;51.854;6.622;2022-07-25T01:38:00;14.50;;;8.63;;
14203;SDS011;7185;51.854;6.622;2022-07-25T01:40:32;10.77;;;9.15;;
14203;SDS011;7185;51.854;6.622;2022-07-25T01:43:03;12.25;;;8.77;;
14203;SDS011;7185;51.854;6.622;2022-07-25T01:45:35;12.80;;;8.60;;
14203;SDS011;7185;51.854;6.622;2022-07-25T01:48:07;11.57;;;7.65;;
14203;SDS011;7185;51.854;6.622;2022-07-25T01:50:40;12.68;;;8.57;;
14203;SDS011;7185;51.854;6.622;2022-07-25T01:53:12;11.93;;;8.30;;
14203;SDS011;7185;51.854;6.622;2022-07-25T01:55:44;11.60;;;8.65;;
14203;SDS011;7185;51.854;6.622;2022-07-25T01:58:15;10.32;;;7.97;;
14203;SDS011;7185;51.854;6.622;2022-07-25T02:00:47;13.52;;;9.30;;
14203;SDS011;7185;51.854;6.622;2022-07-25T02:03:19;12.45;;;8.93;;
14203;SDS011;7185;51.854;6.622;2022-07-25T02:06:04;12.88;;;9.00;;
14203;SDS011;7185;51.854;6.622;2022-07-25T02:08:38;13.43;;;8.60;;
14203;SDS011;7185;51.854;6.622;2022-07-25T02:11:10;12.95;;;8.82;;
14203;SDS011;7185;51.854;6.622;2022-07-25T02:13:42;11.25;;;8.90;;
14203;SDS011;7185;51.854;6.622;2022-07-25T02:16:14;14.85;;;9.85;;
14203;SDS011;7185;51.854;6.622;2022-07-25T02:18:46;11.77;;;8.85;;
14203;SDS011;7185;51.854;6.622;2022-07-25T02:21:19;12.27;;;8.80;;
14203;SDS011;7185;51.854;6.622;2022-07-25T02:23:52;13.38;;;9.20;;
14203;SDS011;7185;51.854;6.622;2022-07-25T02:26:24;12.27;;;8.98;;
14203;SDS011;7185;51.854;6.622;2022-07-25T02:28:56;13.25;;;8.68;;
14203;SDS011;7185;51.854;6.622;2022-07-25T02:31:28;12.95;;;8.98;;
14203;SDS011;7185;51.854;6.622;2022-07-25T02:33:59;14.10;;;8.85;;
14203;SDS011;7185;51.854;6.622;2022-07-25T02:36:32;14.38;;;8.75;;
14203;SDS011;7185;51.854;6.622;2022-07-25T02:39:04;13.77;;;9.55;;
14203;SDS011;7185;51.854;6.622;2022-07-25T02:41:36;12.93;;;8.32;;
14203;SDS011;7185;51.854;6.622;2022-07-25T02:44:07;15.25;;;9.40;;
14203;SDS011;7185;51.854;6.622;2022-07-25T02:46:39;12.27;;;8.68;;
14203;SDS011;7185;51.854;6.622;2022-07-25T02:49:11;12.77;;;9.18;;
14203;SDS011;7185;51.854;6.622;2022-07-25T02:51:44;13.43;;;9.15;;
14203;SDS011;7185;51.854;6.622;2022-07-25T02:54:16;12.45;;;9.07;;
14203;SDS011;7185;51.854;6.622;2022-07-25T02:56:49;11.65;;;8.57;;
14203;SDS011;7185;51.854;6.622;2022-07-25T02:59:20;13.80;;;8.65;;
14203;SDS011;7185;51.854;6.622;2022-07-25T03:01:52;12.27;;;9.25;;
14203;SDS011;7185;51.854;6.622;2022-07-25T03:04:24;15.27;;;9.25;;
14203;SDS011;7185;51.854;6.622;2022-07-25T03:06:57;11.93;;;8.50;;
14203;SDS011;7185;51.854;6.622;2022-07-25T03:09:28;14.80;;;8.27;;
14203;SDS011;7185;51.854;6.622;2022-07-25T03:12:00;14.68;;;9.27;;
14203;SDS011;7185;51.854;6.622;2022-07-25T03:14:31;12.07;;;8.65;;
14203;SDS011;7185;51.854;6.622;2022-07-25T03:17:03;15.82;;;8.63;;
14203;SDS011;7185;51.854;6.622;2022-07-25T03:19:35;17.05;;;9.13;;
14203;SDS011;7185;51.854;6.622;2022-07-25T03:22:08;15.05;;;8.85;;
14203;SDS011;7185;51.854;6.622;2022-07-25T03:24:39;15.52;;;9.65;;
14203;SDS011;7185;51.854;6.622;2022-07-25T03:27:11;11.57;;;8.27;;
14203;SDS011;7185;51.854;6.622;2022-07-25T03:29:43;14.48;;;9.70;;
14203;SDS011;7185;51.854;6.622;2022-07-25T03:32:14;12.48;;;9.10;;
14203;SDS011;7185;51.854;6.622;2022-07-25T03:34:46;13.40;;;9.07;;
14203;SDS011;7185;51.854;6.622;2022-07-25T03:37:19;14.63;;;9.23;;
14203;SDS011;7185;51.854;6.622;2022-07-25T03:39:51;14.13;;;9.25;;
14203;SDS011;7185;51.854;6.622;2022-07-25T03:42:22;18.48;;;9.70;;
14203;SDS011;7185;51.854;6.622;2022-07-25T03:44:54;14.70;;;9.50;;
14203;SDS011;7185;51.854;6.622;2022-07-25T03:47:28;16.25;;;9.40;;
14203;SDS011;7185;51.854;6.622;2022-07-25T03:49:59;15.05;;;9.52;;
14203;SDS011;7185;51.854;6.622;2022-07-25T03:52:33;17.98;;;9.88;;
14203;SDS011;7185;51.854;6.622;2022-07-25T03:55:04;12.95;;;8.77;;
14203;SDS011;7185;51.854;6.622;2022-07-25T03:57:37;16.42;;;9.30;;
14203;SDS011;7185;51.854;6.622;2022-07-25T04:00:10;16.42;;;9.52;;
14203;SDS011;7185;51.854;6.622;2022-07-25T04:02:44;16.00;;;9.20;;
14203;SDS011;7185;51.854;6.622;2022-07-25T04:05:16;13.30;;;9.40;;
14203;SDS011;7185;51.854;6.622;2022-07-25T04:07:54;18.48;;;9.75;;
14203;SDS011;7185;51.854;6.622;2022-07-25T04:10:25;16.17;;;9.10;;
14203;SDS011;7185;51.854;6.622;2022-07-25T04:12:57;16.48;;;9.18;;
14203;SDS011;7185;51.854;6.622;2022-07-25T04:15:28;18.45;;;9.63;;
14203;SDS011;7185;51.854;6.622;2022-07-25T04:18:00;14.82;;;9.27;;
14203;SDS011;7185;51.854;6.622;2022-07-25T04:20:32;15.93;;;9.20;;
14203;SDS011;7185;51.854;6.622;2022-07-25T04:23:07;16.48;;;8.68;;
14203;SDS011;7185;51.854;6.622;2022-07-25T04:25:39;15.63;;;9.05;;
14203;SDS011;7185;51.854;6.622;2022-07-25T04:28:11;16.25;;;8.93;;
14203;SDS011;7185;51.854;6.622;2022-07-25T04:30:42;15.88;;;8.93;;
14203;SDS011;7185;51.854;6.622;2022-07-25T04:33:14;16.00;;;9.50;;
14203;SDS011;7185;51.854;6.622;2022-07-25T04:35:47;14.98;;;8.93;;
14203;SDS011;7185;51.854;6.622;2022-07-25T04:38:20;16.70;;;9.55;;
14203;SDS011;7185;51.854;6.622;2022-07-25T04:40:54;17.33;;;9.75;;
14203;SDS011;7185;51.854;6.622;2022-07-25T04:43:26;14.23;;;8.77;;
14203;SDS011;7185;51.854;6.622;2022-07-25T04:45:58;14.77;;;8.80;;
14203;SDS011;7185;51.854;6.622;2022-07-25T04:48:30;15.13;;;8.73;;
14203;SDS011;7185;51.854;6.622;2022-07-25T04:51:02;13.05;;;8.52;;
14203;SDS011;7185;51.854;6.622;2022-07-25T04:53:35;14.23;;;8.40;;
14203;SDS011;7185;51.854;6.622;2022-07-25T04:56:06;16.40;;;8.57;;
14203;SDS011;7185;51.854;6.622;2022-07-25T04:58:38;12.35;;;7.72;;
14203;SDS011;7185;51.854;6.622;2022-07-25T05:01:10;13.20;;;8.15;;
14203;SDS011;7185;51.854;6.622;2022-07-25T05:03:42;15.73;;;8.80;;
14203;SDS011;7185;51.854;6.622;2022-07-25T05:06:14;17.25;;;9.15;;
14203;SDS011;7185;51.854;6.622;2022-07-25T05:08:47;16.42;;;8.88;;
14203;SDS011;7185;51.854;6.622;2022-07-25T05:11:18;14.25;;;8.02;;
14203;SDS011;7185;51.854;6.622;2022-07-25T05:13:50;13.40;;;7.90;;
14203;SDS011;7185;51.854;6.622;2022-07-25T05:16:21;14.35;;;8.27;;
14203;SDS011;7185;51.854;6.622;2022-07-25T05:18:53;14.05;;;7.55;;
14203;SDS011;7185;51.854;6.622;2022-07-25T05:21:25;14.25;;;8.43;;
14203;SDS011;7185;51.854;6.622;2022-07-25T05:23:58;16.70;;;8.48;;
14203;SDS011;7185;51.854;6.622;2022-07-25T05:26:29;12.18;;;7.80;;
14203;SDS011;7185;51.854;6.622;2022-07-25T05:29:01;13.05;;;7.28;;
14203;SDS011;7185;51.854;6.622;2022-07-25T05:31:33;14.65;;;8.27;;
14203;SDS011;7185;51.854;6.622;2022-07-25T05:34:04;15.18;;;7.20;;
14203;SDS011;7185;51.854;6.622;2022-07-25T05:36:36;12.07;;;7.20;;
14203;SDS011;7185;51.854;6.622;2022-07-25T05:39:09;14.32;;;7.10;;
14203;SDS011;7185;51.854;6.622;2022-07-25T05:41:41;16.20;;;7.70;;
14203;SDS011;7185;51.854;6.622;2022-07-25T05:44:14;14.82;;;7.47;;
14203;SDS011;7185;51.854;6.622;2022-07-25T05:46:45;12.50;;;7.53;;
14203;SDS011;7185;51.854;6.622;2022-07-25T05:49:17;11.63;;;7.15;;
14203;SDS011;7185;51.854;6.622;2022-07-25T05:51:49;12.25;;;7.72;;
14203;SDS011;7185;51.854;6.622;2022-07-25T05:54:22;15.35;;;7.43;;
14203;SDS011;7185;51.854;6.622;2022-07-25T05:56:54;15.98;;;8.02;;
14203;SDS011;7185;51.854;6.622;2022-07-25T05:59:26;12.00;;;8.10;;
14203;SDS011;7185;51.854;6.622;2022-07-25T06:01:57;11.60;;;7.53;;
14203;SDS011;7185;51.854;6.622;2022-07-25T06:04:31;15.27;;;7.68;;
14203;SDS011;7185;51.854;6.622;2022-07-25T06:07:03;13.15;;;8.10;;
14203;SDS011;7185;51.854;6.622;2022-07-25T06:09:36;17.35;;;7.05;;
14203;SDS011;7185;51.854;6.622;2022-07-25T06:12:08;11.88;;;6.53;;
14203;SDS011;7185;51.854;6.622;2022-07-25T06:14:39;11.77;;;7.45;;
14203;SDS011;7185;51.854;6.622;2022-07-25T06:17:11;13.57;;;6.90;;
14203;SDS011;7185;51.854;6.622;2022-07-25T06:19:43;10.57;;;7.10;;
14203;SDS011;7185;51.854;6.622;2022-07-25T06:39:45;11.43;;;7.15;;
14203;SDS011;7185;51.854;6.622;2022-07-25T06:42:17;12.48;;;7.50;;
14203;SDS011;7185;51.854;6.622;2022-07-25T06:44:51;10.93;;;6.65;;
14203;SDS011;7185;51.854;6.622;2022-07-25T06:47:23;12.45;;;6.38;;
14203;SDS011;7185;51.854;6.622;2022-07-25T06:49:55;10.27;;;6.60;;
14203;SDS011;7185;51.854;6.622;2022-07-25T06:52:29;9.18;;;6.30;;
14203;SDS011;7185;51.854;6.622;2022-07-25T06:55:03;10.23;;;6.47;;
14203;SDS011;7185;51.854;6.622;2022-07-25T06:57:36;9.30;;;6.00;;
14203;SDS011;7185;51.854;6.622;2022-07-25T07:00:31;9.65;;;6.25;;
14203;SDS011;7185;51.854;6.622;2022-07-25T07:03:44;8.40;;;5.57;;
14203;SDS011;7185;51.854;6.622;2022-07-25T07:06:15;8.88;;;6.18;;
14203;SDS011;7185;51.854;6.622;2022-07-25T07:08:47;9.00;;;6.47;;
14203;SDS011;7185;51.854;6.622;2022-07-25T07:11:20;10.38;;;6.28;;
14203;SDS011;7185;51.854;6.622;2022-07-25T07:13:52;9.77;;;5.85;;
14203;SDS011;7185;51.854;6.622;2022-07-25T07:16:24;11.13;;;5.90;;
14203;SDS011;7185;51.854;6.622;2022-07-25T07:18:56;11.75;;;5.93;;
14203;SDS011;7185;51.854;6.622;2022-07-25T07:21:28;8.85;;;5.88;;
14203;SDS011;7185;51.854;6.622;2022-07-25T07:23:59;9.15;;;6.15;;
14203;SDS011;7185;51.854;6.622;2022-07-25T07:26:32;10.40;;;5.82;;
14203;SDS011;7185;51.854;6.622;2022-07-25T07:29:04;10.90;;;5.70;;
14203;SDS011;7185;51.854;6.622;2022-07-25T07:31:36;9.63;;;6.38;;
14203;SDS011;7185;51.854;6.622;2022-07-25T07:34:07;10.05;;;6.55;;
14203;SDS011;7185;51.854;6.622;2022-07-25T07:36:40;9.68;;;5.93;;
14203;SDS011;7185;51.854;6.622;2022-07-25T07:39:11;13.07;;;6.88;;
14203;SDS011;7185;51.854;6.622;2022-07-25T07:41:46;9.95;;;5.90;;
14203;SDS011;7185;51.854;6.622;2022-07-25T07:44:18;8.65;;;5.85;;
14203;SDS011;7185;51.854;6.622;2022-07-25T07:46:51;8.25;;;6.40;;
14203;SDS011;7185;51.854;6.622;2022-07-25T07:49:22;7.43;;;5.28;;
14203;SDS011;7185;51.854;6.622;2022-07-25T07:51:54;10.63;;;6.68;;
14203;SDS011;7185;51.854;6.622;2022-07-25T07:54:26;14.73;;;6.30;;
14203;SDS011;7185;51.854;6.622;2022-07-25T07:57:16;10.20;;;6.75;;
14203;SDS011;7185;51.854;6.622;2022-07-25T07:59:48;8.73;;;6.68;;
14203;SDS011;7185;51.854;6.622;2022-07-25T08:02:22;8.35;;;5.85;;
14203;SDS011;7185;51.854;6.622;2022-07-25T08:04:53;9.77;;;6.43;;
14203;SDS011;7185;51.854;6.622;2022-07-25T08:07:25;9.07;;;6.47;;
14203;SDS011;7185;51.854;6.622;2022-07-25T08:09:57;9.13;;;6.50;;
14203;SDS011;7185;51.854;6.622;2022-07-25T08:12:33;8.50;;;6.68;;
14203;SDS011;7185;51.854;6.622;2022-07-25T08:15:10;9.63;;;6.82;;
14203;SDS011;7185;51.854;6.622;2022-07-25T08:17:42;9.82;;;6.75;;
14203;SDS011;7185;51.854;6.622;2022-07-25T08:20:14;10.15;;;6.78;;
14203;SDS011;7185;51.854;6.622;2022-07-25T08:22:47;11.00;;;7.28;;
14203;SDS011;7185;51.854;6.622;2022-07-25T08:25:19;9.35;;;6.57;;
14203;SDS011;7185;51.854;6.622;2022-07-25T08:27:53;10.25;;;7.50;;
14203;SDS011;7185;51.854;6.622;2022-07-25T08:30:24;12.95;;;7.78;;
14203;SDS011;7185;51.854;6.622;2022-07-25T08:32:57;13.70;;;8.15;;
14203;SDS011;7185;51.854;6.622;2022-07-25T08:35:33;14.18;;;7.60;;
14203;SDS011;7185;51.854;6.622;2022-07-25T08:38:05;19.98;;;8.75;;
14203;SDS011;7185;51.854;6.622;2022-07-25T08:40:37;10.50;;;7.53;;
14203;SDS011;7185;51.854;6.622;2022-07-25T08:43:11;14.27;;;8.05;;
14203;SDS011;7185;51.854;6.622;2022-07-25T08:45:44;13.90;;;8.77;;
14203;SDS011;7185;51.854;6.622;2022-07-25T08:48:17;10.52;;;6.82;;
14203;SDS011;7185;51.854;6.622;2022-07-25T08:50:50;20.13;;;8.43;;
14203;SDS011;7185;51.854;6.622;2022-07-25T08:53:23;11.27;;;6.28;;
14203;SDS011;7185;51.854;6.622;2022-07-25T08:55:55;10.23;;;5.88;;
14203;SDS011;7185;51.854;6.622;2022-07-25T08:58:28;11.95;;;6.78;;
14203;SDS011;7185;51.854;6.622;2022-07-25T09:01:00;14.38;;;7.88;;
14203;SDS011;7185;51.854;6.622;2022-07-25T09:03:32;13.40;;;7.45;;
14203;SDS011;7185;51.854;6.622;2022-07-25T09:06:17;13.95;;;7.18;;
14203;SDS011;7185;51.854;6.622;2022-07-25T09:08:53;10.43;;;6.85;;
14203;SDS011;7185;51.854;6.622;2022-07-25T09:11:30;14.32;;;6.20;;
14203;SDS011;7185;51.854;6.622;2022-07-25T09:14:05;8.55;;;5.68;;
14203;SDS011;7185;51.854;6.622;2022-07-25T09:16:40;9.68;;;5.78;;
14203;SDS011;7185;51.854;6.622;2022-07-25T09:19:14;8.48;;;5.38;;
14203;SDS011;7185;51.854;6.622;2022-07-25T09:21:56;8.10;;;5.43;;
14203;SDS011;7185;51.854;6.622;2022-07-25T09:24:34;9.05;;;5.55;;
14203;SDS011;7185;51.854;6.622;2022-07-25T09:27:07;8.70;;;5.25;;
14203;SDS011;7185;51.854;6.622;2022-07-25T09:29:41;6.47;;;4.68;;
14203;SDS011;7185;51.854;6.622;2022-07-25T09:32:14;9.23;;;4.32;;
14203;SDS011;7185;51.854;6.622;2022-07-25T09:34:47;7.82;;;4.20;;
14203;SDS011;7185;51.854;6.622;2022-07-25T09:37:25;7.38;;;4.03;;
14203;SDS011;7185;51.854;6.622;2022-07-25T09:39:57;9.68;;;3.72;;
14203;SDS011;7185;51.854;6.622;2022-07-25T09:42:29;7.53;;;3.25;;
14203;SDS011;7185;51.854;6.622;2022-07-25T09:45:05;4.97;;;3.20;;
14203;SDS011;7185;51.854;6.622;2022-07-25T09:47:50;5.75;;;3.22;;
14203;SDS011;7185;51.854;6.622;2022-07-25T09:50:25;5.10;;;2.60;;
14203;SDS011;7185;51.854;6.622;2022-07-25T09:52:59;5.28;;;2.97;;
14203;SDS011;7185;51.854;6.622;2022-07-25T09:55:32;4.88;;;2.40;;
14203;SDS011;7185;51.854;6.622;2022-07-25T09:58:04;4.10;;;2.55;;
14203;SDS011;7185;51.854;6.622;2022-07-25T10:00:38;5.78;;;2.60;;
14203;SDS011;7185;51.854;6.622;2022-07-25T10:03:14;5.37;;;2.83;;
14203;SDS011;7185;51.854;6.622;2022-07-25T10:05:50;4.00;;;2.70;;
14203;SDS011;7185;51.854;6.622;2022-07-25T10:08:34;9.27;;;3.03;;
14203;SDS011;7185;51.854;6.622;2022-07-25T10:11:17;6.72;;;3.80;;
14203;SDS011;7185;51.854;6.622;2022-07-25T10:13:50;5.28;;;3.00;;
14203;SDS011;7185;51.854;6.622;2022-07-25T10:16:24;6.35;;;3.20;;
14203;SDS011;7185;51.854;6.622;2022-07-25T10:18:57;7.85;;;3.40;;
14203;SDS011;7185;51.854;6.622;2022-07-25T10:21:29;5.82;;;3.28;;
14203;SDS011;7185;51.854;6.622;2022-07-25T10:24:02;3.70;;;2.65;;
14203;SDS011;7185;51.854;6.622;2022-07-25T10:26:35;6.95;;;2.65;;
14203;SDS011;7185;51.854;6.622;2022-07-25T10:29:09;4.00;;;2.20;;
14203;SDS011;7185;51.854;6.622;2022-07-25T10:31:43;4.10;;;2.47;;
14203;SDS011;7185;51.854;6.622;2022-07-25T10:34:15;5.40;;;2.45;;
14203;SDS011;7185;51.854;6.622;2022-07-25T10:37:07;4.00;;;2.88;;
14203;SDS011;7185;51.854;6.622;2022-07-25T10:39:41;4.15;;;2.28;;
14203;SDS011;7185;51.854;6.622;2022-07-25T10:42:15;5.40;;;2.40;;
14203;SDS011;7185;51.854;6.622;2022-07-25T10:44:48;4.47;;;2.40;;
14203;SDS011;7185;51.854;6.622;2022-07-25T10:47:27;5.60;;;2.45;;
14203;SDS011;7185;51.854;6.622;2022-07-25T10:50:00;3.75;;;2.20;;
14203;SDS011;7185;51.854;6.622;2022-07-25T10:52:39;3.90;;;1.98;;
14203;SDS011;7185;51.854;6.622;2022-07-25T10:55:20;6.00;;;1.92;;
14203;SDS011;7185;51.854;6.622;2022-07-25T10:57:58;4.97;;;1.73;;
14203;SDS011;7185;51.854;6.622;2022-07-25T11:00:30;3.20;;;1.40;;
14203;SDS011;7185;51.854;6.622;2022-07-25T11:03:04;2.95;;;1.60;;
14203;SDS011;7185;51.854;6.622;2022-07-25T11:05:42;4.70;;;1.95;;
14203;SDS011;7185;51.854;6.622;2022-07-25T11:08:15;3.33;;;1.60;;
14203;SDS011;7185;51.854;6.622;2022-07-25T11:10:49;4.50;;;1.50;;
14203;SDS011;7185;51.854;6.622;2022-07-25T11:13:22;3.85;;;1.42;;
14203;SDS011;7185;51.854;6.622;2022-07-25T11:15:55;3.22;;;1.50;;
14203;SDS011;7185;51.854;6.622;2022-07-25T11:18:32;5.90;;;1.70;;
14203;SDS011;7185;51.854;6.622;2022-07-25T11:21:06;4.30;;;1.30;;
14203;SDS011;7185;51.854;6.622;2022-07-25T11:23:38;3.83;;;1.40;;
14203;SDS011;7185;51.854;6.622;2022-07-25T11:26:11;5.50;;;1.50;;
14203;SDS011;7185;51.854;6.622;2022-07-25T11:28:44;3.00;;;1.27;;
14203;SDS011;7185;51.854;6.622;2022-07-25T11:31:17;4.30;;;1.60;;
14203;SDS011;7185;51.854;6.622;2022-07-25T11:33:53;6.45;;;1.60;;
14203;SDS011;7185;51.854;6.622;2022-07-25T11:36:26;3.17;;;1.35;;
14203;SDS011;7185;51.854;6.622;2022-07-25T11:38:59;4.35;;;1.60;;
14203;SDS011;7185;51.854;6.622;2022-07-25T11:41:31;9.05;;;1.58;;
14203;SDS011;7185;51.854;6.622;2022-07-25T11:44:03;3.95;;;1.50;;
14203;SDS011;7185;51.854;6.622;2022-07-25T11:46:40;2.67;;;1.20;;
14203;SDS011;7185;51.854;6.622;2022-07-25T11:49:14;5.28;;;1.73;;
14203;SDS011;7185;51.854;6.622;2022-07-25T11:51:46;4.78;;;1.40;;
14203;SDS011;7185;51.854;6.622;2022-07-25T11:54:17;3.40;;;1.58;;
14203;SDS011;7185;51.854;6.622;2022-07-25T11:56:49;3.42;;;1.50;;
14203;SDS011;7185;51.854;6.622;2022-07-25T11:59:21;4.20;;;1.70;;
14203;SDS011;7185;51.854;6.622;2022-07-25T12:01:54;4.60;;;1.48;;
14203;SDS011;7185;51.854;6.622;2022-07-25T12:04:27;5.20;;;1.70;;
14203;SDS011;7185;51.854;6.622;2022-07-25T12:07:02;4.07;;;1.70;;
14203;SDS011;7185;51.854;6.622;2022-07-25T12:09:35;8.30;;;1.70;;
14203;SDS011;7185;51.854;6.622;2022-07-25T12:12:07;3.55;;;1.75;;
14203;SDS011;7185;51.854;6.622;2022-07-25T12:14:42;4.43;;;1.30;;
14203;SDS011;7185;51.854;6.622;2022-07-25T12:17:14;3.55;;;1.80;;
14203;SDS011;7185;51.854;6.622;2022-07-25T12:19:47;4.88;;;2.03;;
14203;SDS011;7185;51.854;6.622;2022-07-25T12:22:19;4.57;;;1.77;;
14203;SDS011;7185;51.854;6.622;2022-07-25T12:24:50;5.85;;;2.08;;
14203;SDS011;7185;51.854;6.622;2022-07-25T12:27:22;5.05;;;1.98;;
14203;SDS011;7185;51.854;6.622;2022-07-25T12:29:55;6.43;;;2.17;;
14203;SDS011;7185;51.854;6.622;2022-07-25T12:32:27;3.55;;;1.73;;
14203;SDS011;7185;51.854;6.622;2022-07-25T12:35:00;3.50;;;2.03;;
14203;SDS011;7185;51.854;6.622;2022-07-25T12:37:32;7.53;;;2.40;;
14203;SDS011;7185;51.854;6.622;2022-07-25T12:40:05;5.47;;;2.10;;
14203;SDS011;7185;51.854;6.622;2022-07-25T12:42:37;4.10;;;2.13;;
14203;SDS011;7185;51.854;6.622;2022-07-25T12:45:10;4.25;;;1.80;;
14203;SDS011;7185;51.854;6.622;2022-07-25T12:47:44;6.18;;;2.17;;
14203;SDS011;7185;51.854;6.622;2022-07-25T12:50:18;4.85;;;1.88;;
14203;SDS011;7185;51.854;6.622;2022-07-25T12:52:50;3.72;;;1.92;;
14203;SDS011;7185;51.854;6.622;2022-07-25T12:55:23;7.40;;;1.88;;
14203;SDS011;7185;51.854;6.622;2022-07-25T12:57:55;6.55;;;1.80;;
14203;SDS011;7185;51.854;6.622;2022-07-25T13:00:27;5.22;;;1.75;;
14203;SDS011;7185;51.854;6.622;2022-07-25T13:02:59;2.92;;;1.75;;
14203;SDS011;7185;51.854;6.622;2022-07-25T13:05:32;8.15;;;2.03;;
14203;SDS011;7185;51.854;6.622;2022-07-25T13:08:03;4.38;;;2.08;;
14203;SDS011;7185;51.854;6.622;2022-07-25T13:10:36;7.40;;;2.00;;
14203;SDS011;7185;51.854;6.622;2022-07-25T13:13:08;4.72;;;2.03;;
14203;SDS011;7185;51.854;6.622;2022-07-25T13:15:39;6.10;;;2.10;;
14203;SDS011;7185;51.854;6.622;2022-07-25T13:18:11;4.72;;;2.03;;
14203;SDS011;7185;51.854;6.622;2022-07-25T13:20:44;7.00;;;2.33;;
14203;SDS011;7185;51.854;6.622;2022-07-25T13:23:16;8.68;;;2.30;;
14203;SDS011;7185;51.854;6.622;2022-07-25T13:25:47;7.18;;;2.30;;
14203;SDS011;7185;51.854;6.622;2022-07-25T13:28:19;6.43;;;2.42;;
14203;SDS011;7185;51.854;6.622;2022-07-25T13:30:51;7.85;;;2.50;;
14203;SDS011;7185;51.854;6.622;2022-07-25T13:33:22;9.68;;;2.42;;
14203;SDS011;7185;51.854;6.622;2022-07-25T13:35:56;4.45;;;2.22;;
14203;SDS011;7185;51.854;6.622;2022-07-25T13:38:29;3.95;;;2.60;;
14203;SDS011;7185;51.854;6.622;2022-07-25T13:41:03;5.75;;;2.58;;
14203;SDS011;7185;51.854;6.622;2022-07-25T13:43:37;6.05;;;2.50;;
14203;SDS011;7185;51.854;6.622;2022-07-25T13:46:11;5.13;;;2.83;;
14203;SDS011;7185;51.854;6.622;2022-07-25T13:48:44;11.68;;;2.92;;
14203;SDS011;7185;51.854;6.622;2022-07-25T13:51:18;10.65;;;2.78;;
14203;SDS011;7185;51.854;6.622;2022-07-25T13:53:50;8.30;;;2.72;;
14203;SDS011;7185;51.854;6.622;2022-07-25T13:56:22;9.60;;;3.42;;
14203;SDS011;7185;51.854;6.622;2022-07-25T13:58:54;9.20;;;2.78;;
14203;SDS011;7185;51.854;6.622;2022-07-25T14:01:33;8.75;;;3.55;;
14203;SDS011;7185;51.854;6.622;2022-07-25T14:04:06;7.47;;;3.67;;
14203;SDS011;7185;51.854;6.622;2022-07-25T14:06:39;10.50;;;3.75;;
14203;SDS011;7185;51.854;6.622;2022-07-25T14:09:11;10.00;;;4.15;;
14203;SDS011;7185;51.854;6.622;2022-07-25T14:11:43;6.78;;;4.20;;
14203;SDS011;7185;51.854;6.622;2022-07-25T14:14:15;9.60;;;4.35;;
14203;SDS011;7185;51.854;6.622;2022-07-25T14:16:47;8.70;;;4.88;;
14203;SDS011;7185;51.854;6.622;2022-07-25T14:19:19;7.22;;;4.50;;
14203;SDS011;7185;51.854;6.622;2022-07-25T14:21:54;6.45;;;3.60;;
14203;SDS011;7185;51.854;6.622;2022-07-25T14:24:26;8.40;;;3.63;;
14203;SDS011;7185;51.854;6.622;2022-07-25T14:26:57;8.57;;;3.10;;
14203;SDS011;7185;51.854;6.622;2022-07-25T14:29:29;12.70;;;3.95;;
14203;SDS011;7185;51.854;6.622;2022-07-25T14:32:05;10.07;;;3.63;;
14203;SDS011;7185;51.854;6.622;2022-07-25T14:34:38;13.10;;;3.63;;
14203;SDS011;7185;51.854;6.622;2022-07-25T14:37:12;9.80;;;3.30;;
14203;SDS011;7185;51.854;6.622;2022-07-25T14:39:44;9.02;;;3.10;;
14203;SDS011;7185;51.854;6.622;2022-07-25T14:42:16;11.60;;;3.22;;
14203;SDS011;7185;51.854;6.622;2022-07-25T14:44:47;7.32;;;3.45;;
14203;SDS011;7185;51.854;6.622;2022-07-25T14:47:19;8.82;;;3.60;;
14203;SDS011;7185;51.854;6.622;2022-07-25T14:49:51;10.23;;;3.50;;
14203;SDS011;7185;51.854;6.622;2022-07-25T14:52:25;8.35;;;3.72;;
14203;SDS011;7185;51.854;6.622;2022-07-25T14:54:56;10.88;;;3.35;;
14203;SDS011;7185;51.854;6.622;2022-07-25T14:57:31;7.68;;;3.17;;
14203;SDS011;7185;51.854;6.622;2022-07-25T15:00:05;14.35;;;3.40;;
14203;SDS011;7185;51.854;6.622;2022-07-25T15:05:12;4.03;;;2.20;;
14203;SDS011;7185;51.854;6.622;2022-07-25T15:07:45;6.20;;;2.67;;
14203;SDS011;7185;51.854;6.622;2022-07-25T15:10:16;6.63;;;2.90;;
14203;SDS011;7185;51.854;6.622;2022-07-25T15:12:54;5.72;;;2.70;;
14203;SDS011;7185;51.854;6.622;2022-07-25T15:15:27;6.50;;;2.78;;
14203;SDS011;7185;51.854;6.622;2022-07-25T15:17:59;6.40;;;2.53;;
14203;SDS011;7185;51.854;6.622;2022-07-25T15:20:31;4.53;;;2.10;;
14203;SDS011;7185;51.854;6.622;2022-07-25T15:23:05;4.85;;;2.75;;
14203;SDS011;7185;51.854;6.622;2022-07-25T15:25:37;6.35;;;2.42;;
14203;SDS011;7185;51.854;6.622;2022-07-25T15:28:08;7.63;;;2.80;;
14203;SDS011;7185;51.854;6.622;2022-07-25T15:30:40;5.72;;;2.80;;
14203;SDS011;7185;51.854;6.622;2022-07-25T15:33:12;7.75;;;3.17;;
14203;SDS011;7185;51.854;6.622;2022-07-25T15:35:44;7.22;;;3.38;;
14203;SDS011;7185;51.854;6.622;2022-07-25T15:38:18;7.40;;;3.92;;
14203;SDS011;7185;51.854;6.622;2022-07-25T15:40:51;9.65;;;4.28;;
14203;SDS011;7185;51.854;6.622;2022-07-25T15:43:23;8.00;;;4.30;;
14203;SDS011;7185;51.854;6.622;2022-07-25T15:45:55;14.38;;;4.43;;
14203;SDS011;7185;51.854;6.622;2022-07-25T15:48:27;9.32;;;3.88;;